Time;durP1;ratioP1;P1;durP2;ratioP2;P2;SDS_P1;SDS_P2;PMS_P1;PMS_P2;Temp;Humidity;BMP_temperature;BMP_pressure;BME280_temperature;BME280_humidity;BME280_pressure;Samples;Min_cycle;Max_cycle;Signal;HPM_P1;HPM_P2
2022/09/22 00:00:42;;;;;;;25.60;12.73;;;4.90;99.90;;;;;;5123224;28;20467;-85
2022/09/22 00:03:08;;;;;;;19.73;12.17;;;;;;;;;;5122624;28;20256;-85
2022/09/22 00:05:34;;;;;;;19.90;11.80;;;;;;;;;;5123906;28;20475;-86
2022/09/22 00:08:03;;;;;;;20.10;11.93;;;4.80;99.90;;;;;;5134668;28;20405;-83
2022/09/22 00:10:29;;;;;;;16.40;10.07;;;;;;;;;;5141292;28;20401;-82
2022/09/22 00:12:55;;;;;;;17.20;9.97;;;4.80;99.90;;;;;;5140784;28;20413;-84
2022/09/22 00:15:21;;;;;;;20.10;10.10;;;4.80;99.90;;;;;;5138342;28;20182;-85
2022/09/22 00:17:46;;;;;;;16.13;9.93;;;4.80;99.90;;;;;;5121804;28;20484;-85
2022/09/22 00:20:12;;;;;;;17.67;10.73;;;4.80;99.90;;;;;;5124175;28;20180;-85
2022/09/22 00:22:39;;;;;;;16.57;10.07;;;4.70;99.90;;;;;;5121406;28;20190;-85
2022/09/22 00:25:06;;;;;;;13.30;9.50;;;4.70;99.90;;;;;;5119830;28;20207;-86
2022/09/22 00:27:32;;;;;;;13.17;9.10;;;4.70;99.90;;;;;;5121317;28;20410;-85
2022/09/22 00:29:57;;;;;;;12.13;8.03;;;4.70;99.90;;;;;;5121197;28;20929;-85
2022/09/22 00:32:23;;;;;;;12.03;8.43;;;4.70;99.90;;;;;;5121679;28;20172;-86
2022/09/22 00:34:49;;;;;;;14.97;9.27;;;4.60;99.90;;;;;;5122336;28;20172;-85
2022/09/22 00:37:15;;;;;;;14.37;9.90;;;4.60;99.90;;;;;;5119739;28;20183;-85
2022/09/22 00:39:42;;;;;;;16.10;9.33;;;;;;;;;;5121961;28;20201;-85
2022/09/22 00:42:11;;;;;;;11.47;8.83;;;4.50;99.90;;;;;;5121112;28;20506;-85
2022/09/22 00:44:41;;;;;;;11.63;8.47;;;4.50;99.90;;;;;;5119965;28;20469;-85
2022/09/22 00:47:42;;;;;;;10.10;7.13;;;4.50;99.90;;;;;;5119980;28;20413;-85
2022/09/22 00:50:21;;;;;;;9.03;6.17;;;4.50;99.90;;;;;;5121769;28;20421;-85
2022/09/22 00:52:56;;;;;;;10.20;6.10;;;4.40;99.90;;;;;;5121652;28;20431;-84
2022/09/22 00:55:27;;;;;;;9.07;5.80;;;4.40;99.90;;;;;;5120493;28;20940;-85
2022/09/22 00:57:54;;;;;;;12.03;8.10;;;4.40;99.90;;;;;;5119303;28;20432;-85
2022/09/22 01:00:20;;;;;;;12.67;7.47;;;4.30;99.90;;;;;;5121125;28;20408;-84
2022/09/22 05:44:38;;;;;;;7.37;5.60;;;2.60;99.90;;;;;;5117596;27;20560;-86
2022/09/22 07:11:16;;;;;;;6.73;6.03;;;5.40;99.90;;;;;;5138018;27;20272;-82
2022/09/22 07:13:44;;;;;;;8.00;6.80;;;5.50;99.90;;;;;;5125744;28;20209;-83
2022/09/22 07:16:15;;;;;;;6.73;6.03;;;5.60;99.90;;;;;;5134952;28;20185;-83
2022/09/22 07:18:43;;;;;;;8.33;7.10;;;5.70;99.90;;;;;;5134139;28;20181;-83
2022/09/22 07:21:11;;;;;;;7.80;6.63;;;5.80;99.90;;;;;;5133926;28;20204;-84
2022/09/22 07:23:37;;;;;;;8.23;6.23;;;5.90;99.90;;;;;;5136413;28;20203;-84
2022/09/22 07:26:05;;;;;;;5.70;5.20;;;6.10;99.90;;;;;;5137716;28;20192;-84
2022/09/22 07:28:33;;;;;;;8.20;5.67;;;6.20;99.90;;;;;;5137054;28;20613;-83
2022/09/22 07:31:07;;;;;;;8.87;5.20;;;6.40;99.90;;;;;;5136744;27;20215;-83
2022/09/22 07:33:37;;;;;;;7.23;5.73;;;6.50;99.90;;;;;;5134363;28;20201;-82
2022/09/22 07:36:10;;;;;;;7.33;5.93;;;6.60;99.90;;;;;;5133703;28;20179;-84
2022/09/22 07:38:37;;;;;;;13.13;5.67;;;6.80;99.90;;;;;;5134233;27;20792;-84
2022/09/22 07:41:13;;;;;;;9.03;5.00;;;7.00;99.90;;;;;;5132365;28;20184;-82
2022/09/22 07:43:40;;;;;;;10.63;6.27;;;7.20;99.90;;;;;;5133086;27;20193;-84
2022/09/22 07:46:06;;;;;;;9.73;5.10;;;7.40;99.90;;;;;;5132186;28;20671;-83
2022/09/22 07:48:36;;;;;;;7.87;4.63;;;7.60;99.90;;;;;;5132612;27;20206;-84
2022/09/22 07:51:05;;;;;;;5.73;4.80;;;7.80;99.90;;;;;;5132745;27;20183;-84
2022/09/22 07:53:31;;;;;;;4.60;4.20;;;8.10;99.90;;;;;;5132175;28;20206;-84
2022/09/22 07:56:05;;;;;;;7.20;4.97;;;8.60;99.90;;;;;;5132487;28;20563;-82
2022/09/22 07:58:32;;;;;;;9.20;3.60;;;9.10;99.90;;;;;;5133959;28;20659;-83
2022/09/22 08:01:03;;;;;;;3.33;3.03;;;9.70;99.90;;;;;;5134995;28;20615;-84
2022/09/22 08:03:29;;;;;;;3.30;3.00;;;10.20;99.90;;;;;;5135051;28;20595;-83
2022/09/22 08:06:01;;;;;;;4.50;3.17;;;10.50;99.90;;;;;;5136943;27;20179;-84
2022/09/22 08:08:33;;;;;;;5.80;3.63;;;10.80;99.90;;;;;;5132201;28;20533;-85
2022/09/22 08:11:26;;;;;;;4.73;2.90;;;11.00;99.90;;;;;;5132742;28;20720;-85
2022/09/22 08:14:04;;;;;;;2.53;2.30;;;11.30;99.90;;;;;;5136090;28;20203;-85
2022/09/22 08:16:33;;;;;;;3.53;2.63;;;11.70;99.90;;;;;;5135906;28;20167;-85
2022/09/22 08:19:02;;;;;;;2.90;2.17;;;12.00;99.90;;;;;;5137453;28;20689;-86
2022/09/22 08:21:34;;;;;;;5.67;1.87;;;12.20;99.90;;;;;;5129870;27;20176;-86
2022/09/22 08:24:08;;;;;;;3.47;1.97;;;12.30;99.90;;;;;;5122438;28;20701;-85
2022/09/22 08:26:35;;;;;;;3.40;1.57;;;12.50;99.90;;;;;;5120148;28;20239;-85
2022/09/22 08:29:03;;;;;;;2.10;1.70;;;12.80;99.90;;;;;;5119924;28;20172;-84
2022/09/22 08:31:29;;;;;;;3.00;1.73;;;13.10;99.90;;;;;;5118752;28;20641;-83
2022/09/22 08:33:55;;;;;;;2.60;1.80;;;13.40;99.90;;;;;;5119824;28;20203;-85
2022/09/22 08:36:22;;;;;;;3.33;1.90;;;13.70;99.90;;;;;;5118174;28;20180;-84
2022/09/22 08:38:48;;;;;;;1.60;1.33;;;14.00;99.90;;;;;;5119224;28;20198;-84
2022/09/22 08:41:28;;;;;;;4.10;1.50;;;14.40;99.90;;;;;;5119013;28;20184;-85
2022/09/22 08:44:01;;;;;;;2.27;1.20;;;14.70;99.90;;;;;;5118917;28;20254;-84
2022/09/22 08:46:37;;;;;;;1.40;1.20;;;15.10;99.90;;;;;;5120650;28;20218;-85
2022/09/22 08:52:32;;;;;;;1.53;1.10;;;15.70;99.90;;;;;;5121419;28;20562;-84
2022/09/22 08:54:59;;;;;;;1.67;1.20;;;16.30;99.90;;;;;;5119758;28;20262;-84
2022/09/22 08:57:48;;;;;;;2.37;1.20;;;16.60;99.90;;;;;;5121298;28;20176;-84
2022/09/22 09:00:16;;;;;;;4.40;1.30;;;16.80;99.90;;;;;;5112881;28;20645;-84
2022/09/22 09:02:43;;;;;;;4.70;1.17;;;16.90;99.90;;;;;;5118534;28;20187;-84
2022/09/22 09:05:44;;;;;;;2.13;0.80;;;17.00;99.90;;;;;;5119019;28;20203;-85
2022/09/22 09:08:31;;;;;;;1.57;1.10;;;17.10;99.90;;;;;;5118889;28;20167;-85
2022/09/22 09:11:29;;;;;;;3.73;1.20;;;17.20;99.90;;;;;;5120252;28;20211;-84
2022/09/22 09:14:01;;;;;;;1.10;1.00;;;17.40;99.90;;;;;;5118461;28;20553;-84
2022/09/22 09:16:45;;;;;;;1.87;1.10;;;17.60;99.90;;;;;;5118243;28;20171;-84
2022/09/22 09:19:33;;;;;;;1.30;1.20;;;17.70;99.90;;;;;;5118206;28;20176;-86
2022/09/22 09:22:05;;;;;;;1.10;1.00;;;17.70;99.90;;;;;;5118368;28;20172;-84
2022/09/22 09:24:33;;;;;;;2.37;1.10;;;18.10;99.90;;;;;;5119127;28;20274;-84
2022/09/22 09:27:12;;;;;;;2.30;0.90;;;18.30;99.90;;;;;;5117569;28;20184;-84
2022/09/22 09:30:03;;;;;;;1.47;1.10;;;18.30;99.90;;;;;;5119710;28;20184;-85
2022/09/22 09:32:51;;;;;;;1.80;1.00;;;18.30;99.90;;;;;;5118207;28;20162;-84
2022/09/22 09:35:23;;;;;;;3.00;1.10;;;18.40;99.90;;;;;;5118847;28;20628;-84
2022/09/22 09:37:52;;;;;;;2.13;1.00;;;18.50;99.90;;;;;;5117532;28;20174;-84
2022/09/22 09:40:20;;;;;;;1.10;0.90;;;18.70;99.90;;;;;;5118063;28;20182;-84
2022/09/22 09:43:02;;;;;;;3.43;1.37;;;18.70;99.90;;;;;;5117977;28;20178;-84
2022/09/22 09:45:57;;;;;;;1.37;0.93;;;18.70;99.90;;;;;;5133708;28;20172;-85
2022/09/22 09:48:33;;;;;;;1.90;1.30;;;18.80;99.90;;;;;;5102564;28;20222;-84
2022/09/22 09:51:04;;;;;;;1.30;1.13;;;18.60;99.90;;;;;;5121709;28;20202;-83
2022/09/22 09:53:37;;;;;;;2.53;1.20;;;18.70;99.90;;;;;;5119621;28;20557;-86
2022/09/22 09:56:17;;;;;;;2.57;1.17;;;18.90;99.90;;;;;;5120333;28;20170;-86
2022/09/22 10:01:46;;;;;;;2.90;1.07;;;19.30;99.90;;;;;;5117268;28;20571;-84
2022/09/22 10:04:21;;;;;;;1.00;0.90;;;19.50;99.30;;;;;;5115479;28;20551;-85
2022/09/22 10:06:47;;;;;;;1.27;1.10;;;19.50;99.20;;;;;;5117433;28;20173;-84
2022/09/22 10:09:27;;;;;;;1.57;1.10;;;19.70;99.90;;;;;;5116750;28;20232;-84
2022/09/22 10:12:00;;;;;;;1.20;1.10;;;19.90;99.90;;;;;;5118814;28;20159;-86
2022/09/22 10:14:32;;;;;;;2.80;1.03;;;20.20;99.90;;;;;;5118453;28;20569;-85
2022/09/22 10:16:58;;;;;;;1.60;0.90;;;20.40;99.90;;;;;;5117184;28;20180;-81
2022/09/22 10:19:33;;;;;;;1.17;0.87;;;20.50;99.90;;;;;;5116902;28;20270;-85
2022/09/22 10:22:26;;;;;;;1.50;0.80;;;20.60;97.60;;;;;;5118168;28;20659;-84
2022/09/22 10:24:56;;;;;;;1.40;0.90;;;20.60;98.70;;;;;;5118873;28;20192;-85
2022/09/22 10:27:24;;;;;;;3.00;0.80;;;20.70;96.60;;;;;;5117385;28;20166;-84
2022/09/22 10:30:09;;;;;;;0.70;0.70;;;20.80;98.70;;;;;;5119470;28;20188;-85
2022/09/22 10:32:36;;;;;;;1.50;0.80;;;21.00;94.00;;;;;;5117436;28;20250;-83
2022/09/22 10:35:26;;;;;;;1.27;0.70;;;21.20;95.00;;;;;;5130038;28;20175;-79
2022/09/22 10:37:56;;;;;;;1.33;0.80;;;20.90;96.50;;;;;;5132428;28;20168;-80
2022/09/22 10:40:22;;;;;;;0.83;0.67;;;21.00;92.20;;;;;;5132241;28;20210;-85
2022/09/22 10:42:50;;;;;;;1.10;0.80;;;21.00;93.50;;;;;;5133105;28;20197;-80
2022/09/22 10:45:18;;;;;;;1.93;0.80;;;21.10;95.10;;;;;;5117980;28;20195;-83
2022/09/22 10:48:16;;;;;;;1.20;0.70;;;21.30;94.30;;;;;;5118520;28;20202;-85
2022/09/22 10:50:57;;;;;;;2.37;0.80;;;21.70;95.50;;;;;;5117801;28;20364;-85
2022/09/22 10:53:31;;;;;;;3.60;0.80;;;21.90;93.60;;;;;;5121775;28;20187;-86
2022/09/22 10:56:15;;;;;;;2.07;0.90;;;22.00;91.70;;;;;;5120239;28;20179;-82
2022/09/22 10:59:00;;;;;;;0.87;0.70;;;22.10;91.30;;;;;;5117949;28;20262;-84
2022/09/22 11:01:47;;;;;;;0.97;0.87;;;22.10;92.20;;;;;;5118417;28;20722;-82
2022/09/22 11:04:28;;;;;;;3.47;1.07;;;22.20;93.40;;;;;;5116672;28;20202;-84
2022/09/22 11:13:52;;;;;;;1.00;0.80;;;22.50;93.00;;;;;;5119336;28;20233;-85
2022/09/22 11:16:33;;;;;;;1.03;0.70;;;22.60;92.70;;;;;;5118871;28;20177;-86
2022/09/22 11:19:12;;;;;;;0.80;0.80;;;23.00;93.90;;;;;;5116593;28;20168;-86
2022/09/22 11:21:57;;;;;;;1.03;0.90;;;23.20;88.50;;;;;;5119311;28;20175;-83
2022/09/22 11:25:00;;;;;;;1.10;0.60;;;23.30;91.00;;;;;;5118612;28;20195;-85
2022/09/22 11:27:59;;;;;;;0.73;0.73;;;23.20;89.20;;;;;;5118114;28;20232;-86
2022/09/22 11:30:25;;;;;;;1.00;0.80;;;22.90;85.30;;;;;;5097023;28;20205;-84
2022/09/22 11:33:14;;;;;;;1.27;0.90;;;22.80;87.60;;;;;;5118953;28;20564;-85
2022/09/22 11:35:49;;;;;;;1.30;1.00;;;22.80;89.40;;;;;;5119093;28;20164;-85
2022/09/22 11:38:41;;;;;;;1.30;0.83;;;23.10;87.20;;;;;;5120029;28;20197;-84
2022/09/22 11:41:19;;;;;;;0.83;0.80;;;23.30;85.20;;;;;;5118336;28;20201;-84
2022/09/22 11:44:09;;;;;;;1.80;0.67;;;23.40;77.70;;;;;;5118019;28;20732;-85
2022/09/22 11:46:46;;;;;;;1.27;0.87;;;23.30;78.70;;;;;;5118501;28;20190;-85
2022/09/22 11:49:28;;;;;;;2.30;1.07;;;23.60;86.90;;;;;;5118462;28;20166;-83
2022/09/22 11:52:07;;;;;;;0.73;0.73;;;23.90;82.80;;;;;;5119080;28;20186;-86
2022/09/22 11:55:01;;;;;;;0.87;0.80;;;24.10;77.80;;;;;;5117764;28;20192;-85
2022/09/22 11:57:32;;;;;;;1.10;0.93;;;23.90;82.30;;;;;;5119832;28;20248;-85
2022/09/22 11:59:58;;;;;;;0.70;0.70;;;24.00;79.80;;;;;;5121986;28;20207;-83
2022/09/22 12:02:30;;;;;;;2.93;0.90;;;24.20;81.90;;;;;;5122871;28;20508;-85
2022/09/22 12:04:58;;;;;;;1.00;0.87;;;24.40;77.40;;;;;;5122359;28;20164;-86
2022/09/22 12:07:36;;;;;;;1.10;0.80;;;24.30;78.20;;;;;;5120408;28;20248;-85
2022/09/22 12:10:17;;;;;;;1.47;0.80;;;24.20;80.90;;;;;;5120733;28;20202;-84
2022/09/22 12:12:47;;;;;;;1.80;0.90;;;24.20;79.40;;;;;;5119293;28;20534;-83
2022/09/22 12:15:28;;;;;;;1.23;0.70;;;24.20;79.20;;;;;;5118996;28;20528;-84
2022/09/22 12:17:59;;;;;;;0.53;0.53;;;24.20;82.70;;;;;;5119505;28;20679;-84
2022/09/22 12:20:57;;;;;;;0.50;0.50;;;24.30;75.20;;;;;;5117898;28;20281;-85
2022/09/22 12:23:37;;;;;;;0.70;0.67;;;24.30;78.10;;;;;;5118392;28;20193;-83
2022/09/22 12:26:09;;;;;;;1.77;0.83;;;24.40;79.60;;;;;;5118572;28;20700;-83
2022/09/22 12:28:44;;;;;;;1.90;0.70;;;24.50;74.30;;;;;;5117430;28;20216;-84
2022/09/22 12:31:14;;;;;;;3.47;0.80;;;24.80;81.50;;;;;;5118713;28;20201;-84
2022/09/22 12:33:55;;;;;;;0.87;0.70;;;24.80;73.60;;;;;;5117560;28;20202;-86
2022/09/22 12:36:33;;;;;;;1.73;0.80;;;24.40;70.50;;;;;;5117318;28;20273;-79
2022/09/22 12:39:10;;;;;;;1.90;0.80;;;24.10;77.10;;;;;;5119273;28;20160;-82
2022/09/22 12:41:46;;;;;;;1.10;0.70;;;24.00;77.40;;;;;;5117383;28;20192;-84
2022/09/22 12:44:16;;;;;;;0.90;0.90;;;23.90;70.90;;;;;;5118651;28;20242;-82
2022/09/22 12:46:43;;;;;;;0.80;0.60;;;23.80;69.40;;;;;;5117376;28;20181;-84
2022/09/22 12:49:17;;;;;;;0.90;0.80;;;24.10;78.50;;;;;;5118370;28;20175;-82
2022/09/22 12:51:43;;;;;;;1.63;0.70;;;24.50;70.80;;;;;;5119380;28;20170;-84
2022/09/22 12:54:21;;;;;;;3.20;0.90;;;24.70;75.90;;;;;;5119394;28;20194;-83
2022/09/22 12:56:53;;;;;;;3.90;0.70;;;24.60;75.00;;;;;;5120183;28;20159;-83
2022/09/22 12:59:36;;;;;;;1.67;0.90;;;24.70;66.40;;;;;;5120059;28;20594;-83
2022/09/22 13:02:17;;;;;;;0.80;0.67;;;24.60;73.50;;;;;;5117905;28;20546;-87
2022/09/22 13:05:04;;;;;;;1.63;0.70;;;24.70;72.50;;;;;;5118504;28;20221;-83
2022/09/22 13:07:37;;;;;;;3.03;1.00;;;24.90;70.70;;;;;;5116612;28;20178;-82
2022/09/22 13:10:23;;;;;;;1.20;0.70;;;25.00;71.40;;;;;;5116904;28;20227;-85
2022/09/22 13:13:01;;;;;;;1.40;0.80;;;24.80;72.20;;;;;;5117396;28;20278;-83
2022/09/22 13:15:48;;;;;;;4.53;0.97;;;25.00;69.20;;;;;;5118866;28;20183;-86
2022/09/22 13:18:43;;;;;;;1.07;0.97;;;24.80;73.00;;;;;;5116579;28;20183;-84
2022/09/22 13:21:12;;;;;;;1.17;0.90;;;25.00;74.70;;;;;;5116875;28;20558;-82
2022/09/22 13:23:53;;;;;;;1.10;0.80;;;25.10;71.20;;;;;;5117771;28;20194;-85
2022/09/22 13:26:29;;;;;;;2.73;0.90;;;25.00;74.10;;;;;;5117022;28;20666;-84
2022/09/22 13:29:18;;;;;;;0.83;0.83;;;24.80;74.10;;;;;;5117662;28;20192;-86
2022/09/22 13:31:53;;;;;;;3.20;0.90;;;24.80;70.40;;;;;;5117371;28;20191;-84
2022/09/22 13:34:24;;;;;;;1.20;0.77;;;24.70;65.30;;;;;;5117627;28;20618;-86
2022/09/22 13:37:11;;;;;;;5.03;1.10;;;24.80;67.60;;;;;;5117614;28;20544;-85
2022/09/22 13:39:40;;;;;;;1.00;0.80;;;24.80;68.30;;;;;;5117103;28;20223;-86
2022/09/22 13:42:13;;;;;;;4.33;0.97;;;24.90;70.30;;;;;;5119393;28;20203;-87
2022/09/22 13:44:43;;;;;;;4.33;0.90;;;25.00;62.90;;;;;;5119302;28;20191;-85
2022/09/22 13:47:22;;;;;;;0.90;0.60;;;24.90;65.40;;;;;;5119427;28;20174;-85
2022/09/22 13:49:51;;;;;;;0.60;0.60;;;24.90;63.80;;;;;;5118048;28;20593;-83
2022/09/22 13:52:23;;;;;;;1.17;0.80;;;24.90;65.20;;;;;;5117901;28;20193;-84
2022/09/22 13:54:53;;;;;;;1.73;1.00;;;25.10;65.10;;;;;;5119431;28;20535;-85
2022/09/22 13:57:23;;;;;;;0.90;0.77;;;25.20;68.00;;;;;;5118939;28;20274;-84
2022/09/22 13:59:51;;;;;;;0.97;0.80;;;25.30;61.80;;;;;;5117466;28;20208;-84
2022/09/22 14:02:21;;;;;;;1.83;0.90;;;25.20;59.20;;;;;;5117145;28;20271;-84
2022/09/22 14:05:00;;;;;;;1.27;0.80;;;25.20;61.40;;;;;;5117015;28;20544;-84
2022/09/22 14:07:29;;;;;;;0.97;0.73;;;25.50;60.10;;;;;;5118264;28;20172;-85
2022/09/22 14:09:56;;;;;;;0.80;0.80;;;25.50;60.00;;;;;;5116309;28;20196;-85
2022/09/22 14:12:21;;;;;;;0.90;0.80;;;25.40;60.50;;;;;;5116143;28;20184;-86
2022/09/22 14:14:47;;;;;;;0.70;0.63;;;24.90;60.00;;;;;;5117948;28;20230;-85
2022/09/22 14:17:23;;;;;;;1.13;0.80;;;24.70;65.10;;;;;;5117791;28;20181;-86
2022/09/22 14:20:02;;;;;;;0.87;0.87;;;25.00;57.40;;;;;;5116182;28;20198;-85
2022/09/22 14:22:31;;;;;;;0.77;0.77;;;25.00;58.70;;;;;;5118080;28;20263;-83
2022/09/22 14:24:59;;;;;;;0.70;0.70;;;25.00;60.80;;;;;;5116480;28;20176;-86
2022/09/22 14:27:35;;;;;;;1.10;0.70;;;25.10;59.50;;;;;;5119161;28;20637;-84
2022/09/22 14:30:02;;;;;;;2.67;0.80;;;25.20;57.90;;;;;;5117322;28;20181;-87
2022/09/22 14:32:34;;;;;;;0.90;0.60;;;25.00;59.50;;;;;;5116740;28;20181;-86
2022/09/22 14:35:02;;;;;;;0.60;0.60;;;24.30;58.20;;;;;;5119404;28;20235;-86
2022/09/22 14:37:40;;;;;;;3.03;0.70;;;24.00;57.90;;;;;;5117913;28;20186;-85
2022/09/22 14:40:21;;;;;;;1.63;1.00;;;23.90;59.80;;;;;;5118542;28;20259;-86
2022/09/22 14:42:57;;;;;;;1.17;0.80;;;24.10;61.90;;;;;;5117839;28;20208;-84
2022/09/22 14:45:24;;;;;;;1.07;0.63;;;24.00;60.40;;;;;;5118575;28;20576;-84
2022/09/22 14:48:11;;;;;;;1.07;0.80;;;23.70;59.70;;;;;;5121139;28;20191;-86
2022/09/22 14:50:53;;;;;;;1.00;0.70;;;23.50;60.20;;;;;;5118802;28;20223;-87
2022/09/22 14:53:41;;;;;;;0.63;0.63;;;23.20;60.50;;;;;;5118806;28;20291;-86
2022/09/22 14:56:21;;;;;;;1.23;0.73;;;22.90;60.80;;;;;;5120473;28;20168;-86
2022/09/22 14:58:52;;;;;;;0.83;0.70;;;22.40;62.00;;;;;;5118591;28;20178;-86
2022/09/22 15:04:21;;;;;;;1.50;0.93;;;21.40;62.60;;;;;;5120316;28;20736;-85
2022/09/22 15:06:50;;;;;;;0.87;0.73;;;20.70;66.70;;;;;;5120801;28;20167;-84
2022/09/22 15:09:26;;;;;;;0.80;0.80;;;20.10;66.40;;;;;;5119416;28;20212;-84
2022/09/22 15:12:00;;;;;;;1.80;0.90;;;19.30;68.10;;;;;;5120276;28;20172;-86
2022/09/22 15:14:41;;;;;;;1.53;0.90;;;18.50;69.90;;;;;;5118541;28;20195;-86
2022/09/22 15:20:33;;;;;;;107.80;20.20;;;17.10;72.70;;;;;;5120632;28;20225;-85
2022/09/22 15:23:00;;;;;;;4.60;1.23;;;16.50;75.80;;;;;;5117936;28;20199;-84
2022/09/22 15:25:26;;;;;;;1.33;0.87;;;16.30;75.60;;;;;;5116904;28;20203;-84
2022/09/22 15:27:52;;;;;;;1.27;0.97;;;16.00;76.50;;;;;;5116453;28;20288;-84
2022/09/22 15:30:20;;;;;;;2.37;1.00;;;15.80;77.00;;;;;;5117890;28;20183;-85
2022/09/22 15:32:47;;;;;;;1.43;1.13;;;15.60;80.00;;;;;;5124148;28;20185;-83
2022/09/22 15:35:17;;;;;;;1.33;0.80;;;15.50;79.90;;;;;;5124099;28;20256;-84
2022/09/22 15:37:49;;;;;;;1.30;1.03;;;15.40;79.80;;;;;;5122307;28;20181;-86
2022/09/22 15:40:18;;;;;;;1.93;0.90;;;15.30;80.90;;;;;;5123613;28;20664;-85
2022/09/22 15:42:45;;;;;;;1.23;0.90;;;15.00;81.50;;;;;;5123508;28;20694;-83
2022/09/22 15:45:20;;;;;;;2.47;0.97;;;15.10;82.70;;;;;;5123653;28;20181;-83
2022/09/22 15:47:51;;;;;;;3.80;0.90;;;15.00;82.30;;;;;;5122476;28;20251;-84
2022/09/22 15:50:23;;;;;;;3.70;1.00;;;14.80;83.50;;;;;;5123216;28;20175;-85
2022/09/22 15:52:49;;;;;;;1.73;0.80;;;14.70;82.80;;;;;;5124079;28;21639;-84
2022/09/22 15:55:16;;;;;;;4.23;1.70;;;14.60;82.10;;;;;;5124101;28;20691;-85
2022/09/22 15:57:45;;;;;;;2.53;1.10;;;14.60;83.30;;;;;;5123106;28;20183;-85
2022/09/22 16:00:25;;;;;;;5.30;2.70;;;14.50;82.00;;;;;;5124884;28;20203;-85
2022/09/22 16:02:53;;;;;;;2.43;1.53;;;14.50;84.70;;;;;;5125676;28;20195;-86
2022/09/22 16:05:18;;;;;;;6.27;3.67;;;14.40;85.20;;;;;;5124465;28;20201;-85
2022/09/22 16:07:48;;;;;;;3.77;2.27;;;14.30;83.10;;;;;;5123960;28;20175;-86
2022/09/22 16:10:16;;;;;;;1.50;1.30;;;14.30;86.50;;;;;;5125853;28;20672;-85
2022/09/22 16:12:43;;;;;;;1.53;1.07;;;14.20;86.00;;;;;;5123153;28;20511;-86
2022/09/22 16:15:13;;;;;;;6.10;1.13;;;14.10;85.50;;;;;;5124417;28;20656;-85
2022/09/22 16:17:44;;;;;;;2.73;1.03;;;14.00;88.30;;;;;;5122948;28;20268;-85
2022/09/22 16:20:14;;;;;;;0.83;0.83;;;14.00;86.30;;;;;;5125017;28;20294;-85
2022/09/22 16:22:40;;;;;;;1.10;1.00;;;14.00;86.40;;;;;;5120743;28;20168;-85
2022/09/22 16:25:08;;;;;;;1.00;0.90;;;13.90;84.80;;;;;;5120839;28;20184;-82
2022/09/22 16:27:35;;;;;;;1.27;1.07;;;13.80;88.70;;;;;;5122017;28;20197;-84
2022/09/22 16:30:01;;;;;;;2.77;0.97;;;13.80;87.80;;;;;;5121430;28;20179;-85
2022/09/22 16:32:26;;;;;;;1.57;0.80;;;13.70;90.20;;;;;;5121169;28;20245;-85
2022/09/22 16:34:52;;;;;;;0.83;0.80;;;13.60;91.00;;;;;;5122685;28;20202;-84
2022/09/22 16:37:19;;;;;;;3.03;1.13;;;13.60;88.70;;;;;;5124424;28;20312;-87
2022/09/22 16:39:45;;;;;;;2.27;1.10;;;13.50;91.30;;;;;;5124627;28;20199;-87
2022/09/22 16:42:13;;;;;;;1.77;1.40;;;13.40;90.50;;;;;;5123903;28;20187;-84
2022/09/22 16:44:40;;;;;;;2.03;1.17;;;13.40;91.90;;;;;;5124164;28;20218;-87
2022/09/22 16:47:06;;;;;;;1.50;1.00;;;13.30;91.60;;;;;;5124419;28;20207;-86
2022/09/22 16:49:32;;;;;;;2.70;1.53;;;13.30;92.40;;;;;;5125385;28;20183;-87
2022/09/22 16:51:58;;;;;;;3.50;1.20;;;13.20;94.00;;;;;;5125828;28;20175;-86
2022/09/22 16:54:24;;;;;;;2.70;1.20;;;13.20;93.00;;;;;;5127713;28;20218;-87
2022/09/22 16:56:52;;;;;;;1.83;1.33;;;13.10;94.20;;;;;;5136695;28;20167;-84
2022/09/22 16:59:20;;;;;;;2.33;1.20;;;13.00;94.50;;;;;;5139512;28;20171;-82
2022/09/22 17:01:46;;;;;;;1.90;1.50;;;13.00;94.40;;;;;;5138909;28;20184;-86
2022/09/22 17:04:20;;;;;;;2.53;1.60;;;12.90;95.10;;;;;;5131676;28;20664;-85
2022/09/22 17:06:46;;;;;;;2.03;1.70;;;12.90;95.90;;;;;;5124275;28;20687;-84
2022/09/22 17:09:15;;;;;;;5.00;2.00;;;12.80;96.50;;;;;;5124990;28;20175;-86
2022/09/22 17:11:44;;;;;;;2.23;1.87;;;12.60;97.00;;;;;;5126722;28;20148;-86
2022/09/22 17:14:20;;;;;;;4.37;1.90;;;12.50;97.80;;;;;;5124388;28;20250;-85
2022/09/22 17:16:51;;;;;;;2.50;1.67;;;12.50;98.60;;;;;;5124998;28;20641;-85
2022/09/22 17:19:19;;;;;;;3.83;2.40;;;12.40;98.90;;;;;;5126459;28;20183;-87
2022/09/22 17:21:46;;;;;;;7.83;2.47;;;12.30;99.70;;;;;;5127435;28;20254;-83
2022/09/22 17:24:13;;;;;;;2.50;2.07;;;12.20;99.90;;;;;;5126196;28;20213;-86
2022/09/22 17:26:46;;;;;;;3.13;2.30;;;12.10;99.90;;;;;;5127382;28;20662;-87
2022/09/22 17:29:16;;;;;;;2.40;2.20;;;12.00;99.90;;;;;;5133617;28;20151;-85
2022/09/22 17:31:44;;;;;;;3.00;2.03;;;11.90;99.90;;;;;;5126800;28;20212;-86
2022/09/22 17:34:16;;;;;;;4.30;2.03;;;11.80;99.90;;;;;;5123108;28;20195;-86
2022/09/22 17:36:42;;;;;;;5.07;2.80;;;11.70;99.90;;;;;;5122583;28;20168;-86
2022/09/22 17:39:09;;;;;;;7.53;2.70;;;11.60;99.90;;;;;;5124479;28;20185;-86
2022/09/22 17:41:36;;;;;;;5.80;2.60;;;11.50;99.90;;;;;;5123408;28;20179;-86
2022/09/22 17:44:03;;;;;;;6.50;3.17;;;11.30;99.90;;;;;;5123198;28;20734;-87
2022/09/22 17:46:33;;;;;;;6.23;3.30;;;11.30;99.90;;;;;;5123328;28;20171;-85
2022/09/22 17:57:27;;;;;;;4.53;2.30;;;10.90;99.90;;;;;;5123329;28;20208;-84
2022/09/22 17:59:55;;;;;;;4.33;2.87;;;10.80;99.90;;;;;;5122337;28;20194;-86
2022/09/22 18:02:22;;;;;;;3.40;2.67;;;10.80;99.90;;;;;;5123990;28;20174;-84
2022/09/22 18:04:48;;;;;;;5.03;2.70;;;10.80;99.90;;;;;;5124046;28;20188;-86
2022/09/22 18:07:17;;;;;;;3.57;2.60;;;10.80;99.90;;;;;;5123499;28;20172;-87
2022/09/22 18:09:44;;;;;;;6.83;2.77;;;10.70;99.90;;;;;;5126708;27;20247;-87
2022/09/22 18:12:18;;;;;;;3.53;3.13;;;10.70;99.90;;;;;;5131778;28;20203;-88
2022/09/22 18:14:45;;;;;;;8.43;2.80;;;10.60;99.90;;;;;;5133027;28;20205;-87
2022/09/22 18:17:14;;;;;;;4.20;2.87;;;10.50;99.90;;;;;;5128278;28;20181;-86
2022/09/22 18:19:41;;;;;;;9.93;3.50;;;10.50;99.90;;;;;;5127964;28;20210;-87
2022/09/22 18:22:21;;;;;;;3.90;3.27;;;10.40;99.90;;;;;;5128605;28;20185;-87
2022/09/22 18:24:53;;;;;;;5.03;2.80;;;10.30;99.90;;;;;;5127548;28;20564;-86
2022/09/22 18:27:19;;;;;;;4.10;3.03;;;10.20;99.90;;;;;;5130662;28;20174;-86
2022/09/22 18:29:52;;;;;;;5.80;3.87;;;10.20;99.90;;;;;;5126830;28;20180;-86
2022/09/22 18:32:19;;;;;;;6.60;4.00;;;10.10;99.90;;;;;;5120849;28;20158;-86
2022/09/22 18:34:45;;;;;;;6.00;4.53;;;10.00;99.90;;;;;;5119596;28;20201;-86
2022/09/22 18:37:11;;;;;;;6.17;4.50;;;9.90;99.90;;;;;;5122481;28;20169;-87
2022/09/22 18:39:40;;;;;;;8.20;5.40;;;9.90;99.90;;;;;;5121206;28;20230;-86
2022/09/22 18:42:10;;;;;;;11.07;5.73;;;9.80;99.90;;;;;;5121541;28;20169;-85
2022/09/22 18:44:36;;;;;;;12.40;5.57;;;9.80;99.90;;;;;;5122075;28;20212;-85
2022/09/22 18:47:02;;;;;;;11.77;5.10;;;9.70;99.90;;;;;;5123877;28;20172;-85
2022/09/22 18:49:32;;;;;;;8.53;4.70;;;9.70;99.90;;;;;;5121289;28;20184;-86
2022/09/22 18:51:59;;;;;;;6.20;4.60;;;9.60;99.90;;;;;;5121439;28;20541;-85
2022/09/22 18:54:25;;;;;;;6.03;4.03;;;9.50;99.90;;;;;;5121387;28;20197;-85
2022/09/22 18:56:51;;;;;;;5.33;4.03;;;9.50;99.90;;;;;;5118978;28;20226;-86
2022/09/22 18:59:19;;;;;;;5.80;4.50;;;9.40;99.90;;;;;;5120790;28;20177;-85
2022/09/22 19:01:48;;;;;;;8.37;3.90;;;9.30;99.90;;;;;;5121769;28;20198;-86
2022/09/22 19:04:19;;;;;;;9.13;4.27;;;9.30;99.90;;;;;;5120868;28;20228;-84
2022/09/22 19:09:40;;;;;;;6.93;3.73;;;9.20;99.90;;;;;;5122285;28;20209;-87
2022/09/22 19:12:08;;;;;;;8.07;4.40;;;9.20;99.90;;;;;;5120863;28;20177;-84
2022/09/22 19:14:37;;;;;;;6.73;4.13;;;9.10;99.90;;;;;;5120658;28;20202;-83
2022/09/22 19:17:07;;;;;;;8.00;5.20;;;9.00;99.90;;;;;;5119980;28;20541;-86
2022/09/22 19:19:35;;;;;;;10.33;6.20;;;9.00;99.90;;;;;;5120659;28;20192;-84
2022/09/22 19:22:09;;;;;;;8.80;7.07;;;9.00;99.90;;;;;;5120845;28;20177;-84
2022/09/22 19:24:39;;;;;;;9.77;7.00;;;8.90;99.90;;;;;;5119483;28;20220;-87
2022/09/22 19:27:07;;;;;;;10.93;6.43;;;8.80;99.90;;;;;;5121591;28;20157;-87
2022/09/22 19:29:33;;;;;;;10.00;6.80;;;8.90;99.90;;;;;;5120424;28;20240;-86
2022/09/22 19:31:59;;;;;;;16.00;6.50;;;8.80;99.90;;;;;;5121979;28;20627;-87
2022/09/22 19:34:26;;;;;;;9.10;6.67;;;8.80;99.90;;;;;;5121005;28;20208;-85
2022/09/22 19:36:54;;;;;;;9.07;6.50;;;8.70;99.90;;;;;;5120909;28;20176;-86
2022/09/22 19:39:20;;;;;;;14.23;6.77;;;8.70;99.90;;;;;;5120211;28;20176;-85
2022/09/22 19:41:47;;;;;;;8.47;6.37;;;8.60;99.90;;;;;;5121077;28;20171;-86
2022/09/22 19:44:17;;;;;;;9.43;6.27;;;8.50;99.90;;;;;;5120285;28;20190;-88
2022/09/22 19:46:45;;;;;;;10.70;6.53;;;8.50;99.90;;;;;;5121529;28;20243;-86
2022/09/22 19:49:10;;;;;;;9.23;7.07;;;8.40;99.90;;;;;;5118654;28;20264;-84
2022/09/22 19:51:37;;;;;;;8.90;6.77;;;8.40;99.90;;;;;;5116682;28;20211;-85